sensor_id;sensor_type;location;lat;lon;timestamp;P1;durP1;ratioP1;P2;durP2;ratioP2
30335;SDS011;17142;47.990;7.846;2023-04-24T00:00:49;1.53;;;0.60;;
30335;SDS011;17142;47.990;7.846;2023-04-24T00:03:15;1.70;;;0.47;;
30335;SDS011;17142;47.990;7.846;2023-04-24T00:05:45;1.37;;;0.50;;
30335;SDS011;17142;47.990;7.846;2023-04-24T00:08:11;0.50;;;0.40;;
30335;SDS011;17142;47.990;7.846;2023-04-24T00:10:39;1.50;;;0.70;;
30335;SDS011;17142;47.990;7.846;2023-04-24T00:13:05;1.57;;;0.53;;
30335;SDS011;17142;47.990;7.846;2023-04-24T00:15:31;0.77;;;0.50;;
30335;SDS011;17142;47.990;7.846;2023-04-24T00:17:59;1.77;;;0.70;;
30335;SDS011;17142;47.990;7.846;2023-04-24T00:20:28;1.07;;;0.63;;
30335;SDS011;17142;47.990;7.846;2023-04-24T00:22:54;0.50;;;0.40;;
30335;SDS011;17142;47.990;7.846;2023-04-24T00:25:20;0.70;;;0.50;;
30335;SDS011;17142;47.990;7.846;2023-04-24T00:27:46;0.60;;;0.50;;
30335;SDS011;17142;47.990;7.846;2023-04-24T00:30:14;0.63;;;0.40;;
30335;SDS011;17142;47.990;7.846;2023-04-24T00:32:39;0.83;;;0.50;;
30335;SDS011;17142;47.990;7.846;2023-04-24T00:35:07;0.60;;;0.50;;
30335;SDS011;17142;47.990;7.846;2023-04-24T00:37:33;3.60;;;0.60;;
30335;SDS011;17142;47.990;7.846;2023-04-24T00:39:59;2.20;;;0.50;;
30335;SDS011;17142;47.990;7.846;2023-04-24T00:42:24;2.40;;;0.43;;
30335;SDS011;17142;47.990;7.846;2023-04-24T00:44:50;0.67;;;0.50;;
30335;SDS011;17142;47.990;7.846;2023-04-24T00:47:16;1.60;;;0.50;;
30335;SDS011;17142;47.990;7.846;2023-04-24T00:49:45;1.27;;;0.40;;
30335;SDS011;17142;47.990;7.846;2023-04-24T00:52:12;0.80;;;0.37;;
30335;SDS011;17142;47.990;7.846;2023-04-24T00:54:42;1.50;;;0.50;;
30335;SDS011;17142;47.990;7.846;2023-04-24T00:57:10;0.77;;;0.40;;
30335;SDS011;17142;47.990;7.846;2023-04-24T00:59:37;0.50;;;0.40;;
30335;SDS011;17142;47.990;7.846;2023-04-24T01:02:06;0.70;;;0.70;;
30335;SDS011;17142;47.990;7.846;2023-04-24T01:04:35;0.90;;;0.90;;
30335;SDS011;17142;47.990;7.846;2023-04-24T01:07:01;2.00;;;0.50;;
30335;SDS011;17142;47.990;7.846;2023-04-24T01:09:34;0.50;;;0.40;;
30335;SDS011;17142;47.990;7.846;2023-04-24T01:12:05;1.13;;;0.50;;
30335;SDS011;17142;47.990;7.846;2023-04-24T01:14:31;2.10;;;0.40;;
30335;SDS011;17142;47.990;7.846;2023-04-24T01:16:57;1.27;;;0.53;;
30335;SDS011;17142;47.990;7.846;2023-04-24T01:19:23;1.10;;;0.50;;
30335;SDS011;17142;47.990;7.846;2023-04-24T01:21:50;1.23;;;0.50;;
30335;SDS011;17142;47.990;7.846;2023-04-24T01:24:18;0.93;;;0.57;;
30335;SDS011;17142;47.990;7.846;2023-04-24T01:26:44;1.57;;;0.67;;
30335;SDS011;17142;47.990;7.846;2023-04-24T01:29:11;1.20;;;0.50;;
30335;SDS011;17142;47.990;7.846;2023-04-24T01:31:37;1.13;;;0.40;;
30335;SDS011;17142;47.990;7.846;2023-04-24T01:34:06;1.70;;;0.50;;
30335;SDS011;17142;47.990;7.846;2023-04-24T01:36:33;1.03;;;0.60;;
30335;SDS011;17142;47.990;7.846;2023-04-24T01:39:00;0.80;;;0.40;;
30335;SDS011;17142;47.990;7.846;2023-04-24T01:41:26;1.70;;;0.70;;
30335;SDS011;17142;47.990;7.846;2023-04-24T01:43:52;0.80;;;0.50;;
30335;SDS011;17142;47.990;7.846;2023-04-24T01:46:18;1.87;;;0.50;;
30335;SDS011;17142;47.990;7.846;2023-04-24T01:48:46;0.73;;;0.60;;
30335;SDS011;17142;47.990;7.846;2023-04-24T01:51:12;1.67;;;0.67;;
30335;SDS011;17142;47.990;7.846;2023-04-24T01:53:40;0.73;;;0.60;;
30335;SDS011;17142;47.990;7.846;2023-04-24T01:56:06;1.13;;;0.70;;
30335;SDS011;17142;47.990;7.846;2023-04-24T01:58:32;2.40;;;0.90;;
30335;SDS011;17142;47.990;7.846;2023-04-24T02:00:57;1.03;;;0.50;;
30335;SDS011;17142;47.990;7.846;2023-04-24T02:03:24;0.97;;;0.97;;
30335;SDS011;17142;47.990;7.846;2023-04-24T02:05:51;1.80;;;0.73;;
30335;SDS011;17142;47.990;7.846;2023-04-24T02:08:19;1.03;;;0.40;;
30335;SDS011;17142;47.990;7.846;2023-04-24T02:10:45;1.53;;;0.90;;
30335;SDS011;17142;47.990;7.846;2023-04-24T02:13:10;1.20;;;0.60;;
30335;SDS011;17142;47.990;7.846;2023-04-24T02:15:36;0.83;;;0.40;;
30335;SDS011;17142;47.990;7.846;2023-04-24T02:18:01;0.80;;;0.50;;
30335;SDS011;17142;47.990;7.846;2023-04-24T02:20:27;2.40;;;0.60;;
30335;SDS011;17142;47.990;7.846;2023-04-24T02:22:53;2.30;;;0.80;;
30335;SDS011;17142;47.990;7.846;2023-04-24T02:25:21;2.03;;;0.70;;
30335;SDS011;17142;47.990;7.846;2023-04-24T02:27:46;0.80;;;0.73;;
30335;SDS011;17142;47.990;7.846;2023-04-24T02:30:14;2.00;;;0.87;;
30335;SDS011;17142;47.990;7.846;2023-04-24T02:32:42;0.90;;;0.63;;
30335;SDS011;17142;47.990;7.846;2023-04-24T02:35:08;2.10;;;0.67;;
30335;SDS011;17142;47.990;7.846;2023-04-24T02:37:34;1.23;;;0.60;;
30335;SDS011;17142;47.990;7.846;2023-04-24T02:40:01;3.87;;;1.00;;
30335;SDS011;17142;47.990;7.846;2023-04-24T02:42:30;1.30;;;0.70;;
30335;SDS011;17142;47.990;7.846;2023-04-24T02:44:56;4.87;;;0.60;;
30335;SDS011;17142;47.990;7.846;2023-04-24T02:47:24;2.50;;;0.70;;
30335;SDS011;17142;47.990;7.846;2023-04-24T02:49:49;2.50;;;0.77;;
30335;SDS011;17142;47.990;7.846;2023-04-24T02:52:15;1.67;;;0.70;;
30335;SDS011;17142;47.990;7.846;2023-04-24T02:54:41;1.07;;;0.60;;
30335;SDS011;17142;47.990;7.846;2023-04-24T02:57:07;2.60;;;0.60;;
30335;SDS011;17142;47.990;7.846;2023-04-24T02:59:33;2.50;;;0.50;;
30335;SDS011;17142;47.990;7.846;2023-04-24T03:01:59;1.43;;;0.60;;
30335;SDS011;17142;47.990;7.846;2023-04-24T03:04:25;3.13;;;0.60;;
30335;SDS011;17142;47.990;7.846;2023-04-24T03:06:51;1.20;;;0.67;;
30335;SDS011;17142;47.990;7.846;2023-04-24T03:09:19;0.80;;;0.50;;
30335;SDS011;17142;47.990;7.846;2023-04-24T03:11:45;1.33;;;0.57;;
30335;SDS011;17142;47.990;7.846;2023-04-24T03:14:11;1.00;;;0.53;;
30335;SDS011;17142;47.990;7.846;2023-04-24T03:16:36;1.63;;;0.70;;
30335;SDS011;17142;47.990;7.846;2023-04-24T03:19:02;2.07;;;0.60;;
30335;SDS011;17142;47.990;7.846;2023-04-24T03:21:28;2.13;;;0.70;;
30335;SDS011;17142;47.990;7.846;2023-04-24T03:23:53;0.70;;;0.60;;
30335;SDS011;17142;47.990;7.846;2023-04-24T03:26:19;1.30;;;0.70;;
30335;SDS011;17142;47.990;7.846;2023-04-24T03:28:47;2.97;;;0.80;;
30335;SDS011;17142;47.990;7.846;2023-04-24T03:31:13;2.90;;;0.60;;
30335;SDS011;17142;47.990;7.846;2023-04-24T03:33:40;3.70;;;0.70;;
30335;SDS011;17142;47.990;7.846;2023-04-24T03:36:06;0.80;;;0.50;;
30335;SDS011;17142;47.990;7.846;2023-04-24T03:38:31;1.43;;;0.60;;
30335;SDS011;17142;47.990;7.846;2023-04-24T03:40:57;1.00;;;0.67;;
30335;SDS011;17142;47.990;7.846;2023-04-24T03:43:23;2.00;;;0.50;;
30335;SDS011;17142;47.990;7.846;2023-04-24T03:45:52;0.87;;;0.60;;
30335;SDS011;17142;47.990;7.846;2023-04-24T03:48:20;0.70;;;0.60;;
30335;SDS011;17142;47.990;7.846;2023-04-24T03:50:45;2.33;;;0.73;;
30335;SDS011;17142;47.990;7.846;2023-04-24T03:53:11;4.13;;;1.00;;
30335;SDS011;17142;47.990;7.846;2023-04-24T03:55:37;1.80;;;0.83;;
30335;SDS011;17142;47.990;7.846;2023-04-24T03:58:02;2.83;;;0.80;;
30335;SDS011;17142;47.990;7.846;2023-04-24T04:00:30;1.30;;;0.70;;
30335;SDS011;17142;47.990;7.846;2023-04-24T04:02:57;1.23;;;0.73;;
30335;SDS011;17142;47.990;7.846;2023-04-24T04:05:22;2.10;;;0.80;;
30335;SDS011;17142;47.990;7.846;2023-04-24T04:07:50;1.20;;;0.80;;
30335;SDS011;17142;47.990;7.846;2023-04-24T04:10:16;1.37;;;0.80;;
30335;SDS011;17142;47.990;7.846;2023-04-24T04:12:42;1.80;;;0.80;;
30335;SDS011;17142;47.990;7.846;2023-04-24T04:15:08;1.80;;;0.60;;
30335;SDS011;17142;47.990;7.846;2023-04-24T04:17:36;2.17;;;0.97;;
30335;SDS011;17142;47.990;7.846;2023-04-24T04:20:03;2.90;;;0.90;;
30335;SDS011;17142;47.990;7.846;2023-04-24T04:22:33;1.10;;;0.80;;
30335;SDS011;17142;47.990;7.846;2023-04-24T04:24:59;2.07;;;1.50;;
30335;SDS011;17142;47.990;7.846;2023-04-24T04:27:24;2.40;;;0.90;;
30335;SDS011;17142;47.990;7.846;2023-04-24T04:29:51;1.87;;;1.03;;
30335;SDS011;17142;47.990;7.846;2023-04-24T04:32:17;4.77;;;1.07;;
30335;SDS011;17142;47.990;7.846;2023-04-24T04:34:43;2.40;;;0.73;;
30335;SDS011;17142;47.990;7.846;2023-04-24T04:37:10;2.00;;;1.20;;
30335;SDS011;17142;47.990;7.846;2023-04-24T04:39:37;1.73;;;1.03;;
30335;SDS011;17142;47.990;7.846;2023-04-24T04:42:03;1.63;;;0.90;;
30335;SDS011;17142;47.990;7.846;2023-04-24T04:44:31;1.90;;;1.00;;
30335;SDS011;17142;47.990;7.846;2023-04-24T04:46:57;7.63;;;0.93;;
30335;SDS011;17142;47.990;7.846;2023-04-24T04:49:24;1.90;;;1.00;;
30335;SDS011;17142;47.990;7.846;2023-04-24T04:51:49;4.10;;;1.10;;
30335;SDS011;17142;47.990;7.846;2023-04-24T04:54:16;2.13;;;1.20;;
30335;SDS011;17142;47.990;7.846;2023-04-24T04:56:41;3.13;;;1.83;;
30335;SDS011;17142;47.990;7.846;2023-04-24T04:59:09;2.40;;;1.60;;
30335;SDS011;17142;47.990;7.846;2023-04-24T05:01:35;3.27;;;1.03;;
30335;SDS011;17142;47.990;7.846;2023-04-24T05:04:06;3.07;;;1.57;;
30335;SDS011;17142;47.990;7.846;2023-04-24T05:06:34;1.87;;;1.47;;
30335;SDS011;17142;47.990;7.846;2023-04-24T05:09:00;3.90;;;1.20;;
30335;SDS011;17142;47.990;7.846;2023-04-24T05:11:25;2.83;;;1.40;;
30335;SDS011;17142;47.990;7.846;2023-04-24T05:13:51;2.13;;;1.13;;
30335;SDS011;17142;47.990;7.846;2023-04-24T05:16:16;5.07;;;1.73;;
30335;SDS011;17142;47.990;7.846;2023-04-24T05:18:42;1.63;;;1.17;;
30335;SDS011;17142;47.990;7.846;2023-04-24T05:21:08;1.33;;;1.23;;
30335;SDS011;17142;47.990;7.846;2023-04-24T05:23:34;1.10;;;0.93;;
30335;SDS011;17142;47.990;7.846;2023-04-24T05:25:59;1.27;;;1.10;;
30335;SDS011;17142;47.990;7.846;2023-04-24T05:28:27;4.37;;;2.10;;
30335;SDS011;17142;47.990;7.846;2023-04-24T05:30:54;3.50;;;1.10;;
30335;SDS011;17142;47.990;7.846;2023-04-24T05:33:21;1.67;;;1.57;;
30335;SDS011;17142;47.990;7.846;2023-04-24T05:35:47;4.63;;;1.80;;
30335;SDS011;17142;47.990;7.846;2023-04-24T05:38:13;3.70;;;1.43;;
30335;SDS011;17142;47.990;7.846;2023-04-24T05:40:42;2.20;;;1.53;;
30335;SDS011;17142;47.990;7.846;2023-04-24T05:43:08;4.10;;;1.73;;
30335;SDS011;17142;47.990;7.846;2023-04-24T05:45:33;6.40;;;2.03;;
30335;SDS011;17142;47.990;7.846;2023-04-24T05:48:01;2.23;;;2.03;;
30335;SDS011;17142;47.990;7.846;2023-04-24T05:50:27;1.80;;;1.70;;
30335;SDS011;17142;47.990;7.846;2023-04-24T05:52:55;2.50;;;1.53;;
30335;SDS011;17142;47.990;7.846;2023-04-24T05:55:24;2.00;;;1.80;;
30335;SDS011;17142;47.990;7.846;2023-04-24T05:57:53;2.70;;;1.60;;
30335;SDS011;17142;47.990;7.846;2023-04-24T06:00:18;2.30;;;2.03;;
30335;SDS011;17142;47.990;7.846;2023-04-24T06:02:45;2.27;;;2.00;;
30335;SDS011;17142;47.990;7.846;2023-04-24T06:05:13;2.67;;;2.00;;
30335;SDS011;17142;47.990;7.846;2023-04-24T06:07:44;3.20;;;2.30;;
30335;SDS011;17142;47.990;7.846;2023-04-24T06:10:09;2.90;;;2.10;;
30335;SDS011;17142;47.990;7.846;2023-04-24T06:12:35;4.37;;;1.90;;
30335;SDS011;17142;47.990;7.846;2023-04-24T06:15:01;6.83;;;2.73;;
30335;SDS011;17142;47.990;7.846;2023-04-24T06:17:27;1.67;;;1.57;;
30335;SDS011;17142;47.990;7.846;2023-04-24T06:19:53;1.97;;;1.77;;
30335;SDS011;17142;47.990;7.846;2023-04-24T06:22:18;4.30;;;1.80;;
30335;SDS011;17142;47.990;7.846;2023-04-24T06:24:44;2.00;;;1.80;;
30335;SDS011;17142;47.990;7.846;2023-04-24T06:27:10;6.10;;;1.90;;
30335;SDS011;17142;47.990;7.846;2023-04-24T06:29:38;2.77;;;2.57;;
30335;SDS011;17142;47.990;7.846;2023-04-24T06:32:03;4.33;;;1.80;;
30335;SDS011;17142;47.990;7.846;2023-04-24T06:34:29;6.50;;;2.03;;
30335;SDS011;17142;47.990;7.846;2023-04-24T06:36:57;2.57;;;1.87;;
30335;SDS011;17142;47.990;7.846;2023-04-24T06:39:23;3.20;;;1.90;;
30335;SDS011;17142;47.990;7.846;2023-04-24T06:41:49;3.70;;;1.70;;
30335;SDS011;17142;47.990;7.846;2023-04-24T06:44:14;2.27;;;2.17;;
30335;SDS011;17142;47.990;7.846;2023-04-24T06:46:40;2.67;;;2.13;;
30335;SDS011;17142;47.990;7.846;2023-04-24T06:49:06;3.70;;;1.97;;
30335;SDS011;17142;47.990;7.846;2023-04-24T06:51:34;3.37;;;1.70;;
30335;SDS011;17142;47.990;7.846;2023-04-24T06:54:00;2.13;;;1.93;;
30335;SDS011;17142;47.990;7.846;2023-04-24T06:56:26;2.90;;;2.23;;
30335;SDS011;17142;47.990;7.846;2023-04-24T06:58:54;2.87;;;1.87;;
30335;SDS011;17142;47.990;7.846;2023-04-24T07:01:19;2.53;;;2.33;;
30335;SDS011;17142;47.990;7.846;2023-04-24T07:03:45;1.83;;;1.73;;
30335;SDS011;17142;47.990;7.846;2023-04-24T07:06:11;2.90;;;1.90;;
30335;SDS011;17142;47.990;7.846;2023-04-24T07:08:37;2.40;;;1.80;;
30335;SDS011;17142;47.990;7.846;2023-04-24T07:11:03;2.10;;;1.43;;
30335;SDS011;17142;47.990;7.846;2023-04-24T07:13:29;2.10;;;1.90;;
30335;SDS011;17142;47.990;7.846;2023-04-24T07:15:57;2.63;;;1.63;;
30335;SDS011;17142;47.990;7.846;2023-04-24T07:18:22;3.03;;;1.57;;
30335;SDS011;17142;47.990;7.846;2023-04-24T07:20:48;5.00;;;1.40;;
30335;SDS011;17142;47.990;7.846;2023-04-24T07:23:17;1.97;;;1.20;;
30335;SDS011;17142;47.990;7.846;2023-04-24T07:25:45;1.53;;;1.40;;
30335;SDS011;17142;47.990;7.846;2023-04-24T07:28:15;1.30;;;1.17;;
30335;SDS011;17142;47.990;7.846;2023-04-24T07:30:42;2.60;;;1.17;;
30335;SDS011;17142;47.990;7.846;2023-04-24T07:33:08;2.43;;;1.20;;
30335;SDS011;17142;47.990;7.846;2023-04-24T07:35:36;2.23;;;1.27;;
30335;SDS011;17142;47.990;7.846;2023-04-24T07:38:02;1.83;;;1.13;;
30335;SDS011;17142;47.990;7.846;2023-04-24T07:40:27;1.73;;;1.20;;
30335;SDS011;17142;47.990;7.846;2023-04-24T07:42:55;2.70;;;1.67;;
30335;SDS011;17142;47.990;7.846;2023-04-24T07:45:23;1.50;;;1.23;;
30335;SDS011;17142;47.990;7.846;2023-04-24T07:47:51;1.97;;;1.20;;
30335;SDS011;17142;47.990;7.846;2023-04-24T07:50:16;1.47;;;1.20;;
30335;SDS011;17142;47.990;7.846;2023-04-24T07:52:42;2.63;;;1.63;;
30335;SDS011;17142;47.990;7.846;2023-04-24T07:55:08;1.20;;;1.10;;
30335;SDS011;17142;47.990;7.846;2023-04-24T07:57:33;2.60;;;1.80;;
30335;SDS011;17142;47.990;7.846;2023-04-24T08:00:01;1.20;;;1.10;;
30335;SDS011;17142;47.990;7.846;2023-04-24T08:02:28;1.70;;;1.13;;
30335;SDS011;17142;47.990;7.846;2023-04-24T08:04:54;2.43;;;1.50;;
30335;SDS011;17142;47.990;7.846;2023-04-24T08:07:20;1.77;;;1.63;;
30335;SDS011;17142;47.990;7.846;2023-04-24T08:09:45;2.93;;;1.40;;
30335;SDS011;17142;47.990;7.846;2023-04-24T08:12:11;5.60;;;1.50;;
30335;SDS011;17142;47.990;7.846;2023-04-24T08:14:37;1.70;;;1.40;;
30335;SDS011;17142;47.990;7.846;2023-04-24T08:17:02;2.70;;;1.83;;
30335;SDS011;17142;47.990;7.846;2023-04-24T08:19:30;3.60;;;1.80;;
30335;SDS011;17142;47.990;7.846;2023-04-24T08:21:56;4.60;;;2.20;;
30335;SDS011;17142;47.990;7.846;2023-04-24T08:24:22;1.47;;;1.30;;
30335;SDS011;17142;47.990;7.846;2023-04-24T08:26:50;3.10;;;1.77;;
30335;SDS011;17142;47.990;7.846;2023-04-24T08:29:16;3.43;;;1.30;;
30335;SDS011;17142;47.990;7.846;2023-04-24T08:31:42;5.03;;;1.93;;
30335;SDS011;17142;47.990;7.846;2023-04-24T08:34:10;2.80;;;1.70;;
30335;SDS011;17142;47.990;7.846;2023-04-24T08:36:36;4.80;;;1.67;;
30335;SDS011;17142;47.990;7.846;2023-04-24T08:39:02;5.17;;;1.83;;
30335;SDS011;17142;47.990;7.846;2023-04-24T08:41:28;4.93;;;1.73;;
30335;SDS011;17142;47.990;7.846;2023-04-24T08:43:56;2.40;;;1.33;;
30335;SDS011;17142;47.990;7.846;2023-04-24T08:46:23;2.20;;;1.87;;
30335;SDS011;17142;47.990;7.846;2023-04-24T08:48:50;5.13;;;1.53;;
30335;SDS011;17142;47.990;7.846;2023-04-24T08:51:17;7.47;;;3.53;;
30335;SDS011;17142;47.990;7.846;2023-04-24T08:53:43;1.30;;;1.20;;
30335;SDS011;17142;47.990;7.846;2023-04-24T08:56:10;3.30;;;1.37;;
30335;SDS011;17142;47.990;7.846;2023-04-24T08:58:37;3.27;;;1.70;;
30335;SDS011;17142;47.990;7.846;2023-04-24T09:01:04;2.33;;;1.20;;
30335;SDS011;17142;47.990;7.846;2023-04-24T09:03:32;2.27;;;1.50;;
30335;SDS011;17142;47.990;7.846;2023-04-24T09:05:59;2.23;;;1.37;;
30335;SDS011;17142;47.990;7.846;2023-04-24T09:08:26;1.43;;;1.13;;
30335;SDS011;17142;47.990;7.846;2023-04-24T09:10:54;3.33;;;1.23;;
30335;SDS011;17142;47.990;7.846;2023-04-24T09:13:20;2.27;;;1.30;;
30335;SDS011;17142;47.990;7.846;2023-04-24T09:15:46;2.30;;;1.67;;
30335;SDS011;17142;47.990;7.846;2023-04-24T09:18:13;3.37;;;1.37;;
30335;SDS011;17142;47.990;7.846;2023-04-24T09:23:30;3.63;;;1.47;;
30335;SDS011;17142;47.990;7.846;2023-04-24T09:25:56;2.10;;;1.27;;
30335;SDS011;17142;47.990;7.846;2023-04-24T09:28:29;1.33;;;1.23;;
30335;SDS011;17142;47.990;7.846;2023-04-24T09:31:05;2.20;;;1.30;;
30335;SDS011;17142;47.990;7.846;2023-04-24T09:33:36;1.57;;;0.73;;
30335;SDS011;17142;47.990;7.846;2023-04-24T09:36:02;1.50;;;1.23;;
30335;SDS011;17142;47.990;7.846;2023-04-24T09:38:37;0.90;;;0.87;;
30335;SDS011;17142;47.990;7.846;2023-04-24T09:41:07;1.17;;;0.90;;
30335;SDS011;17142;47.990;7.846;2023-04-24T09:43:33;2.57;;;1.10;;
30335;SDS011;17142;47.990;7.846;2023-04-24T09:46:04;2.40;;;1.10;;
30335;SDS011;17142;47.990;7.846;2023-04-24T09:48:32;4.97;;;1.20;;
30335;SDS011;17142;47.990;7.846;2023-04-24T09:51:00;2.13;;;1.10;;
30335;SDS011;17142;47.990;7.846;2023-04-24T09:53:26;4.70;;;1.13;;
30335;SDS011;17142;47.990;7.846;2023-04-24T09:55:53;3.30;;;1.70;;
30335;SDS011;17142;47.990;7.846;2023-04-24T09:58:24;1.70;;;0.83;;
30335;SDS011;17142;47.990;7.846;2023-04-24T10:00:53;2.30;;;1.50;;
30335;SDS011;17142;47.990;7.846;2023-04-24T10:03:20;1.93;;;1.00;;
30335;SDS011;17142;47.990;7.846;2023-04-24T10:05:46;0.80;;;0.80;;
30335;SDS011;17142;47.990;7.846;2023-04-24T10:08:12;1.40;;;1.27;;
30335;SDS011;17142;47.990;7.846;2023-04-24T10:10:42;0.73;;;0.73;;
30335;SDS011;17142;47.990;7.846;2023-04-24T10:13:10;2.07;;;0.70;;
30335;SDS011;17142;47.990;7.846;2023-04-24T10:15:37;1.00;;;0.70;;
30335;SDS011;17142;47.990;7.846;2023-04-24T10:18:05;1.33;;;0.73;;
30335;SDS011;17142;47.990;7.846;2023-04-24T10:20:31;1.40;;;0.80;;
30335;SDS011;17142;47.990;7.846;2023-04-24T10:22:58;1.70;;;0.90;;
30335;SDS011;17142;47.990;7.846;2023-04-24T10:25:28;1.27;;;1.00;;
30335;SDS011;17142;47.990;7.846;2023-04-24T10:27:55;1.00;;;0.77;;
30335;SDS011;17142;47.990;7.846;2023-04-24T10:30:25;1.17;;;0.70;;
30335;SDS011;17142;47.990;7.846;2023-04-24T10:33:00;0.90;;;0.73;;
30335;SDS011;17142;47.990;7.846;2023-04-24T10:35:26;1.00;;;0.73;;
30335;SDS011;17142;47.990;7.846;2023-04-24T10:37:57;1.93;;;1.20;;
30335;SDS011;17142;47.990;7.846;2023-04-24T10:40:31;2.00;;;0.97;;
30335;SDS011;17142;47.990;7.846;2023-04-24T10:42:58;1.13;;;0.80;;
30335;SDS011;17142;47.990;7.846;2023-04-24T10:45:26;2.27;;;1.40;;
30335;SDS011;17142;47.990;7.846;2023-04-24T10:47:53;2.20;;;0.87;;
30335;SDS011;17142;47.990;7.846;2023-04-24T10:50:44;1.30;;;0.97;;
30335;SDS011;17142;47.990;7.846;2023-04-24T10:53:18;2.20;;;0.70;;
30335;SDS011;17142;47.990;7.846;2023-04-24T10:55:51;2.90;;;0.93;;
30335;SDS011;17142;47.990;7.846;2023-04-24T10:58:41;2.03;;;0.80;;
30335;SDS011;17142;47.990;7.846;2023-04-24T11:03:58;4.37;;;1.03;;
30335;SDS011;17142;47.990;7.846;2023-04-24T11:06:35;2.33;;;2.13;;
30335;SDS011;17142;47.990;7.846;2023-04-24T11:09:05;1.60;;;1.10;;
30335;SDS011;17142;47.990;7.846;2023-04-24T11:11:32;3.33;;;1.23;;
30335;SDS011;17142;47.990;7.846;2023-04-24T11:16:26;2.03;;;0.97;;
30335;SDS011;17142;47.990;7.846;2023-04-24T11:19:08;2.60;;;1.30;;
30335;SDS011;17142;47.990;7.846;2023-04-24T11:24:38;4.20;;;1.43;;
30335;SDS011;17142;47.990;7.846;2023-04-24T11:37:42;2.33;;;1.20;;
30335;SDS011;17142;47.990;7.846;2023-04-24T11:40:18;1.00;;;0.90;;
30335;SDS011;17142;47.990;7.846;2023-04-24T11:42:51;4.60;;;1.20;;
30335;SDS011;17142;47.990;7.846;2023-04-24T11:45:20;1.57;;;1.00;;
30335;SDS011;17142;47.990;7.846;2023-04-24T11:47:47;2.70;;;1.03;;
30335;SDS011;17142;47.990;7.846;2023-04-24T11:50:16;2.10;;;1.27;;
30335;SDS011;17142;47.990;7.846;2023-04-24T11:52:44;3.07;;;1.40;;
30335;SDS011;17142;47.990;7.846;2023-04-24T11:57:39;2.20;;;0.80;;
30335;SDS011;17142;47.990;7.846;2023-04-24T12:02:43;2.53;;;1.17;;
30335;SDS011;17142;47.990;7.846;2023-04-24T12:05:09;1.63;;;1.07;;
30335;SDS011;17142;47.990;7.846;2023-04-24T12:07:46;1.93;;;1.10;;
30335;SDS011;17142;47.990;7.846;2023-04-24T12:10:14;2.80;;;0.90;;
30335;SDS011;17142;47.990;7.846;2023-04-24T12:12:44;1.30;;;1.20;;
30335;SDS011;17142;47.990;7.846;2023-04-24T12:15:17;1.40;;;1.17;;
30335;SDS011;17142;47.990;7.846;2023-04-24T12:17:45;2.20;;;1.40;;
30335;SDS011;17142;47.990;7.846;2023-04-24T12:20:11;3.77;;;1.60;;
30335;SDS011;17142;47.990;7.846;2023-04-24T12:25:19;1.80;;;1.07;;
30335;SDS011;17142;47.990;7.846;2023-04-24T12:27:51;1.43;;;1.10;;
30335;SDS011;17142;47.990;7.846;2023-04-24T12:30:20;1.17;;;1.03;;
30335;SDS011;17142;47.990;7.846;2023-04-24T12:32:53;2.50;;;1.73;;
30335;SDS011;17142;47.990;7.846;2023-04-24T12:35:20;2.37;;;1.10;;
30335;SDS011;17142;47.990;7.846;2023-04-24T12:37:50;2.03;;;1.50;;
30335;SDS011;17142;47.990;7.846;2023-04-24T12:40:17;3.80;;;1.40;;
30335;SDS011;17142;47.990;7.846;2023-04-24T12:45:11;2.43;;;1.67;;
30335;SDS011;17142;47.990;7.846;2023-04-24T12:47:38;4.70;;;1.03;;
30335;SDS011;17142;47.990;7.846;2023-04-24T12:50:05;1.27;;;1.10;;
30335;SDS011;17142;47.990;7.846;2023-04-24T12:52:33;2.30;;;1.03;;
30335;SDS011;17142;47.990;7.846;2023-04-24T12:54:59;1.77;;;1.03;;
30335;SDS011;17142;47.990;7.846;2023-04-24T12:57:28;2.97;;;1.10;;
30335;SDS011;17142;47.990;7.846;2023-04-24T12:59:59;1.73;;;0.90;;
30335;SDS011;17142;47.990;7.846;2023-04-24T13:02:26;4.33;;;1.40;;
30335;SDS011;17142;47.990;7.846;2023-04-24T13:04:59;2.70;;;1.10;;
30335;SDS011;17142;47.990;7.846;2023-04-24T13:07:25;2.97;;;1.63;;
30335;SDS011;17142;47.990;7.846;2023-04-24T13:09:51;1.37;;;1.27;;
30335;SDS011;17142;47.990;7.846;2023-04-24T13:12:18;1.43;;;1.07;;
30335;SDS011;17142;47.990;7.846;2023-04-24T13:14:48;2.93;;;1.33;;
30335;SDS011;17142;47.990;7.846;2023-04-24T13:17:14;2.00;;;1.03;;
30335;SDS011;17142;47.990;7.846;2023-04-24T13:19:40;2.40;;;1.40;;
30335;SDS011;17142;47.990;7.846;2023-04-24T13:22:08;2.00;;;1.33;;
30335;SDS011;17142;47.990;7.846;2023-04-24T13:24:39;2.57;;;1.30;;
30335;SDS011;17142;47.990;7.846;2023-04-24T13:27:06;1.57;;;1.47;;
30335;SDS011;17142;47.990;7.846;2023-04-24T13:29:32;1.87;;;1.13;;
30335;SDS011;17142;47.990;7.846;2023-04-24T13:31:57;1.30;;;1.10;;
30335;SDS011;17142;47.990;7.846;2023-04-24T13:34:24;2.80;;;1.10;;
30335;SDS011;17142;47.990;7.846;2023-04-24T13:36:50;4.10;;;1.33;;
30335;SDS011;17142;47.990;7.846;2023-04-24T13:39:20;1.30;;;0.93;;
30335;SDS011;17142;47.990;7.846;2023-04-24T13:41:47;5.43;;;1.33;;
30335;SDS011;17142;47.990;7.846;2023-04-24T13:44:16;4.40;;;1.30;;
30335;SDS011;17142;47.990;7.846;2023-04-24T13:46:45;2.17;;;0.93;;
30335;SDS011;17142;47.990;7.846;2023-04-24T13:49:12;1.30;;;1.20;;
30335;SDS011;17142;47.990;7.846;2023-04-24T13:51:43;5.33;;;1.70;;
30335;SDS011;17142;47.990;7.846;2023-04-24T13:54:09;1.73;;;1.20;;
30335;SDS011;17142;47.990;7.846;2023-04-24T13:56:35;1.63;;;1.30;;
30335;SDS011;17142;47.990;7.846;2023-04-24T13:59:00;3.20;;;1.80;;
30335;SDS011;17142;47.990;7.846;2023-04-24T14:01:29;1.97;;;1.40;;
30335;SDS011;17142;47.990;7.846;2023-04-24T14:03:55;2.20;;;1.47;;
30335;SDS011;17142;47.990;7.846;2023-04-24T14:06:21;3.73;;;1.20;;
30335;SDS011;17142;47.990;7.846;2023-04-24T14:08:48;2.20;;;1.70;;
30335;SDS011;17142;47.990;7.846;2023-04-24T14:11:17;1.90;;;1.67;;
30335;SDS011;17142;47.990;7.846;2023-04-24T14:13:45;4.33;;;1.83;;
30335;SDS011;17142;47.990;7.846;2023-04-24T14:16:11;2.77;;;1.40;;
30335;SDS011;17142;47.990;7.846;2023-04-24T14:18:42;4.10;;;1.20;;
30335;SDS011;17142;47.990;7.846;2023-04-24T14:21:09;1.53;;;1.03;;
30335;SDS011;17142;47.990;7.846;2023-04-24T14:23:37;1.60;;;1.50;;
30335;SDS011;17142;47.990;7.846;2023-04-24T14:26:03;3.30;;;1.57;;
30335;SDS011;17142;47.990;7.846;2023-04-24T14:28:29;3.07;;;1.50;;
30335;SDS011;17142;47.990;7.846;2023-04-24T14:30:54;2.07;;;1.17;;
30335;SDS011;17142;47.990;7.846;2023-04-24T14:33:20;2.37;;;1.30;;
30335;SDS011;17142;47.990;7.846;2023-04-24T14:35:46;2.07;;;1.10;;
30335;SDS011;17142;47.990;7.846;2023-04-24T14:38:12;2.33;;;1.80;;
30335;SDS011;17142;47.990;7.846;2023-04-24T14:40:40;6.00;;;1.40;;
30335;SDS011;17142;47.990;7.846;2023-04-24T14:43:06;3.03;;;1.17;;
30335;SDS011;17142;47.990;7.846;2023-04-24T14:45:32;2.60;;;1.53;;
30335;SDS011;17142;47.990;7.846;2023-04-24T14:47:57;2.10;;;1.23;;
30335;SDS011;17142;47.990;7.846;2023-04-24T14:50:23;2.53;;;1.80;;
30335;SDS011;17142;47.990;7.846;2023-04-24T14:52:55;2.63;;;1.80;;
30335;SDS011;17142;47.990;7.846;2023-04-24T14:55:24;2.03;;;1.53;;
30335;SDS011;17142;47.990;7.846;2023-04-24T14:57:51;4.17;;;1.90;;
30335;SDS011;17142;47.990;7.846;2023-04-24T15:00:19;2.07;;;1.70;;
30335;SDS011;17142;47.990;7.846;2023-04-24T15:02:45;3.57;;;1.30;;
30335;SDS011;17142;47.990;7.846;2023-04-24T15:05:11;2.20;;;1.47;;
30335;SDS011;17142;47.990;7.846;2023-04-24T15:07:37;1.70;;;1.60;;
30335;SDS011;17142;47.990;7.846;2023-04-24T15:10:06;3.50;;;1.50;;
30335;SDS011;17142;47.990;7.846;2023-04-24T15:12:32;2.50;;;1.67;;
30335;SDS011;17142;47.990;7.846;2023-04-24T15:14:58;2.20;;;1.50;;
30335;SDS011;17142;47.990;7.846;2023-04-24T15:17:24;1.53;;;1.40;;
30335;SDS011;17142;47.990;7.846;2023-04-24T15:19:51;1.80;;;1.47;;